Terminal Aerodrome Forecast
Issued by NWS

Home | Current Version | Previous Version | Graphics & Text | Print | Product List | Glossary On
Versions: 1 2 3 4 5 6 7 8 9 10 11 12 13 14 15 16 17
000
FTUS43 KGRB 212300
TAFATW
TAF
KATW 212327Z 2200/2224 27009KT P6SM SCT040 SCT080
     FM220200 31011G17KT P6SM SCT025
     FM220900 31012G20KT P6SM OVC030
     FM221500 33017G24KT P6SM BKN040=

USA.gov is the U.S. government's official web portal to all federal, state and local government web resources and services.